Forside
METAR-TAF:

METAR-TAF

Lufthavne :

Marshall County Airport

Lacon, Illinois, USA

Breddekreds: 41-01-09N, længdekreds: 089-23-11W, højde: 173 m

Aktuelle vejr

Denne rapport blev lavet for 17 minutter siden, kl. 12:15 UTC
Vind stille
Temperatur 6°C
Fugtighed 75%
Tryk 1027 hPa
Sigt: 16.1 km
skyfri

METAR: KC75 111215Z AUTO 00000KT 10SM CLR 06/02 A3032 RMK AO2 T00630024

Tid: 07:32 (12:32 UTC)


TAF: fraværende

Vejrobservationer og prognoser fra mere end 4000 lufthavne (METAR og TAF).

De gule og røde prikker repræsenterer de meteorologiske stationer.

Flyt musen over at se navnet på stationen.

Så klik over at se vejr observationer og prognoser.

At skifte det kort: Klik på de grønne knapper med et sort kors for at zoome ind; på den grønne knap med en bindestreg for at zoome ud; eller på de grønne pile for tilstødende kort.


METAR-TAF: